Kezdőlap
METAR-TAF:

METAR-TAF

Repülőterek :

Clarion Municipal Airport

Clarion, Iowa, Amerikai Egyesült Államok

földrajzi szélesség: 42-45N, földrajzi hosszúság: 093-46W, magasság: 354 m

Jelenlegi meteorológiai megfigyelések

A jelentés 17 perccel ezelõtt készült, 14:55 UTC
Észak-északnyugati szél 9 kt
Hőmérséklet -7°C
Páratartalom 100%
Légköri nyomás 1028 hPa
Látótávolság: 16.1 km
Borult 600 lábon

METAR: KCAV 061455Z AUTO 34009KT 10SM OVC006 M07/M07 A3037 RMK A01

Idő: 09:12 (15:12 UTC)


TAF: hiányzik

Meteorológiai megfigyelések és előrejelzések több, mint 4000 repülőtéren (METAR és TAF jelentéseket).

A térképen piros és sárga pontok jelzik az elérhető meteorológiai állomásokat.

Mozgassa az egeret a pont fölött, hogy megjelenjen az állomás neve.

Azután kattintson az időjárási megfigyelések és előrejelzések megtekintéséhez.

A térkép megváltoztatása: kattintson a fekete keresztel jelölt zöld gombra ráközelítéshez, a vonallal jelölt zöld gombra távolításhoz, vagy a zöld nyilakra a szomszédos térképek eléréséhez.


METAR-TAF: